Weather at Francis S Gabreski Airport

Public forecast

Using degrees Fahrenheit for public forecast. Weather courtesy of forecast.io.

Current aviation weather report (METAR) for Francis S Gabreski Airport

Report is more than 6 hours old.

2022/11/14 14:53 (retrieved 2 years ago)

KFOK 141453Z 33013G20KT 10SM CLR 06/M03 A3030 RMK AO2 SLP260 T00611033 51019

Closest aviation forecast (TAF) to Francis S Gabreski Airport

Forecast is more than 12 hours old.

Closest forecast is Long Island Mac Arthur Airport, 21.5 nm (39.8 km) W.

2023/02/22 18:24 Ammendment (retrieved 1 year ago)

TAF KISP 221722Z 2218/2318 18008KT P6SM OVC050 FM222000 18007KT 6SM -RA BR SCT025 OVC050 TEMPO 2220/2222 -RAPL OVC015 FM222200 10005KT 5SM -RA OVC010 FM230000 09007KT 5SM -RA BR OVC008 FM230500 06006KT 3SM -RADZ BR OVC006 FM231200 06004KT 1SM -DZ BR OVC007 AMD NOT SKED